Time;durP1;ratioP1;P1;durP2;ratioP2;P2;SDS_P1;SDS_P2;PMS_P1;PMS_P2;Temp;Humidity;BMP_temperature;BMP_pressure;BME280_temperature;BME280_humidity;BME280_pressure;Samples;Min_cycle;Max_cycle;Signal;HPM_P1;HPM_P2
2023/11/09 00:00:37;;;;;;;0.75;0.65;;;;;;;;;;5029646;28;20263;-70
2023/11/09 00:03:02;;;;;;;2.80;0.60;;;;;;;;;;5024421;28;20355;-69
2023/11/09 00:05:27;;;;;;;4.15;1.27;;;;;;;;;;5021864;28;20056;-69
2023/11/09 00:07:53;;;;;;;0.87;0.70;;;;;;;;;;5023827;28;20385;-69
2023/11/09 00:10:18;;;;;;;1.23;0.65;;;;;;;;;;5022947;28;20272;-68
2023/11/09 00:12:43;;;;;;;11.57;1.40;;;;;;;;;;5029986;28;20534;-68
2023/11/09 00:15:09;;;;;;;0.57;0.52;;;;;;;;;;5024259;28;20310;-69
2023/11/09 00:17:35;;;;;;;1.98;0.75;;;;;;;;;;5021548;28;20029;-69
2023/11/09 00:20:00;;;;;;;1.25;0.63;;;;;;;;;;5024988;28;20394;-69
2023/11/09 00:22:26;;;;;;;0.73;0.50;;;;;;;;;;5022262;28;20029;-68
2023/11/09 00:24:51;;;;;;;1.48;0.75;;;;;;;;;;5025827;28;20407;-69
2023/11/09 00:27:17;;;;;;;4.00;0.80;;;;;;;;;;5030941;28;20033;-68
2023/11/09 00:29:42;;;;;;;3.03;1.08;;;;;;;;;;5022244;28;20260;-68
2023/11/09 00:32:07;;;;;;;1.48;0.65;;;;;;;;;;5023199;28;20029;-70
2023/11/09 00:34:32;;;;;;;1.30;0.53;;;;;;;;;;5027480;28;20014;-70
2023/11/09 00:36:57;;;;;;;2.15;0.50;;;;;;;;;;5025083;28;20280;-69
2023/11/09 00:39:23;;;;;;;6.68;1.33;;;;;;;;;;5028023;28;20040;-69
2023/11/09 00:41:48;;;;;;;3.90;0.98;;;;;;;;;;5029479;28;20017;-68
2023/11/09 00:44:13;;;;;;;3.15;0.98;;;;;;;;;;5025693;28;20516;-68
2023/11/09 00:46:38;;;;;;;1.83;0.82;;;;;;;;;;5026961;28;20021;-69
2023/11/09 00:49:03;;;;;;;3.10;1.17;;;;;;;;;;5027699;28;20556;-69
2023/11/09 00:51:29;;;;;;;3.10;1.45;;;;;;;;;;5028445;28;20259;-70
2023/11/09 00:53:55;;;;;;;9.43;1.80;;;;;;;;;;5028515;28;20026;-70
2023/11/09 00:56:20;;;;;;;6.75;1.13;;;;;;;;;;5027651;28;20148;-69
2023/11/09 00:58:45;;;;;;;5.15;1.00;;;;;;;;;;5026278;28;20037;-69
2023/11/09 01:01:10;;;;;;;2.30;0.75;;;;;;;;;;5023793;28;20398;-69
2023/11/09 01:03:37;;;;;;;10.02;1.42;;;;;;;;;;5023408;28;20465;-69
2023/11/09 01:06:05;;;;;;;3.55;1.05;;;;;;;;;;5026401;28;20033;-69
2023/11/09 01:08:30;;;;;;;1.27;0.77;;;;;;;;;;5021800;28;20024;-69
2023/11/09 01:10:56;;;;;;;1.83;0.90;;;;;;;;;;5022382;28;20021;-69
2023/11/09 01:13:21;;;;;;;8.82;0.90;;;;;;;;;;5020635;28;20075;-69
2023/11/09 01:15:46;;;;;;;2.37;0.70;;;;;;;;;;5020123;28;20281;-69
2023/11/09 01:18:11;;;;;;;3.53;1.37;;;;;;;;;;5021557;28;21600;-69
2023/11/09 01:20:37;;;;;;;6.85;0.70;;;;;;;;;;5026416;28;20272;-69
2023/11/09 01:23:02;;;;;;;1.27;0.80;;;;;;;;;;5027060;28;20578;-71
2023/11/09 01:25:28;;;;;;;2.78;1.02;;;;;;;;;;5028752;28;20623;-70
2023/11/09 01:27:53;;;;;;;4.05;1.13;;;;;;;;;;5031939;28;20033;-69
2023/11/09 01:30:18;;;;;;;3.03;0.90;;;;;;;;;;5026691;28;20013;-69
2023/11/09 01:32:43;;;;;;;7.45;1.33;;;;;;;;;;5031561;28;20013;-70
2023/11/09 01:35:09;;;;;;;1.95;1.40;;;;;;;;;;5031805;28;20101;-69
2023/11/09 01:37:34;;;;;;;2.55;0.95;;;;;;;;;;5032330;28;20019;-69
2023/11/09 01:39:59;;;;;;;3.72;0.73;;;;;;;;;;5032322;28;20032;-69
2023/11/09 01:42:25;;;;;;;2.28;1.23;;;;;;;;;;5032041;28;20029;-69
2023/11/09 01:44:50;;;;;;;2.42;1.73;;;;;;;;;;5030023;28;20025;-70
2023/11/09 01:47:15;;;;;;;7.03;1.75;;;;;;;;;;5035335;28;20474;-70
2023/11/09 01:49:40;;;;;;;5.53;1.50;;;;;;;;;;5025759;28;20068;-69
2023/11/09 01:52:06;;;;;;;2.55;1.42;;;;;;;;;;5027623;28;20024;-69
2023/11/09 01:54:33;;;;;;;2.83;0.90;;;;;;;;;;5025691;28;20079;-69
2023/11/09 01:56:59;;;;;;;1.63;1.00;;;;;;;;;;5031241;28;20025;-69
2023/11/09 01:59:25;;;;;;;0.63;0.47;;;;;;;;;;5031394;28;20029;-70
2023/11/09 02:01:52;;;;;;;2.97;1.13;;;;;;;;;;5030109;28;20018;-69
2023/11/09 02:04:18;;;;;;;0.95;0.70;;;;;;;;;;5031146;28;20029;-69
2023/11/09 02:06:43;;;;;;;1.55;0.82;;;;;;;;;;5029895;28;20474;-69
2023/11/09 02:09:08;;;;;;;3.55;0.75;;;;;;;;;;5027608;28;20021;-69
2023/11/09 02:11:33;;;;;;;0.85;0.50;;;;;;;;;;5025112;28;20066;-69
2023/11/09 02:13:59;;;;;;;3.00;0.50;;;;;;;;;;5028980;28;20108;-69
2023/11/09 02:16:24;;;;;;;1.88;0.70;;;;;;;;;;5030237;28;20283;-69
2023/11/09 02:18:49;;;;;;;0.70;0.55;;;;;;;;;;5028162;28;20048;-69
2023/11/09 02:21:16;;;;;;;1.00;0.75;;;;;;;;;;5029478;28;20057;-70
2023/11/09 02:23:42;;;;;;;1.45;1.15;;;;;;;;;;5027152;28;20127;-69
2023/11/09 02:26:08;;;;;;;1.55;0.85;;;;;;;;;;5031074;28;20510;-70
2023/11/09 02:28:33;;;;;;;1.90;0.77;;;;;;;;;;5029059;28;20017;-69
2023/11/09 02:30:58;;;;;;;1.55;0.65;;;;;;;;;;5027447;28;20099;-69
2023/11/09 02:33:23;;;;;;;2.47;0.80;;;;;;;;;;5028160;28;20018;-69
2023/11/09 02:35:49;;;;;;;2.60;0.60;;;;;;;;;;5029271;28;20025;-69
2023/11/09 02:38:14;;;;;;;1.85;0.93;;;;;;;;;;5035683;28;20291;-70
2023/11/09 02:40:40;;;;;;;5.18;1.42;;;;;;;;;;5032357;28;20071;-69
2023/11/09 02:43:05;;;;;;;0.22;0.22;;;;;;;;;;5034692;28;20030;-70
2023/11/09 02:45:30;;;;;;;5.03;0.67;;;;;;;;;;5029848;28;20017;-69
2023/11/09 02:47:56;;;;;;;0.65;0.55;;;;;;;;;;5029320;28;20284;-69
2023/11/09 02:50:21;;;;;;;3.78;0.75;;;;;;;;;;5027886;28;20367;-70
2023/11/09 02:52:48;;;;;;;3.37;1.03;;;;;;;;;;5025947;28;20048;-69
2023/11/09 02:55:13;;;;;;;2.58;0.65;;;;;;;;;;5026655;28;20260;-69
2023/11/09 02:57:38;;;;;;;0.95;0.50;;;;;;;;;;5026392;28;20033;-69
2023/11/09 03:00:05;;;;;;;1.73;0.82;;;;;;;;;;5031440;28;20013;-70
2023/11/09 03:02:31;;;;;;;1.35;0.80;;;;;;;;;;5027252;28;20048;-69
2023/11/09 03:04:56;;;;;;;0.47;0.40;;;;;;;;;;5026682;28;20056;-69
2023/11/09 03:07:21;;;;;;;3.57;0.60;;;;;;;;;;5026110;28;20056;-69
2023/11/09 03:09:46;;;;;;;1.33;0.80;;;;;;;;;;5025292;28;20749;-69
2023/11/09 03:12:12;;;;;;;0.80;0.50;;;;;;;;;;5028649;28;20279;-70
2023/11/09 03:14:37;;;;;;;5.40;1.95;;;;;;;;;;5030571;28;20260;-69
2023/11/09 03:17:06;;;;;;;2.13;0.88;;;;;;;;;;5026761;28;20022;-69
2023/11/09 03:19:31;;;;;;;1.77;1.10;;;;;;;;;;5024270;28;20130;-69
2023/11/09 03:21:57;;;;;;;0.57;0.57;;;;;;;;;;5026729;28;20486;-68
2023/11/09 03:24:22;;;;;;;1.20;0.55;;;;;;;;;;5026824;28;20276;-69
2023/11/09 03:26:47;;;;;;;1.40;0.60;;;;;;;;;;5026089;28;20037;-69
2023/11/09 03:29:12;;;;;;;0.40;0.30;;;;;;;;;;5036194;28;20045;-70
2023/11/09 03:31:37;;;;;;;1.38;0.65;;;;;;;;;;5028595;28;20056;-69
2023/11/09 03:34:03;;;;;;;0.80;0.40;;;;;;;;;;5026288;28;20100;-69
2023/11/09 03:36:29;;;;;;;2.08;0.60;;;;;;;;;;5024325;28;20024;-68
2023/11/09 03:38:55;;;;;;;2.30;0.75;;;;;;;;;;5025866;28;20017;-68
2023/11/09 03:41:20;;;;;;;1.33;0.98;;;;;;;;;;5025652;28;20029;-70
2023/11/09 03:43:45;;;;;;;7.10;0.98;;;;;;;;;;5030341;28;20009;-69
2023/11/09 03:46:11;;;;;;;9.07;1.58;;;;;;;;;;5026614;28;20121;-70
2023/11/09 03:48:37;;;;;;;0.85;0.57;;;;;;;;;;5026459;28;20032;-69
2023/11/09 03:51:02;;;;;;;0.93;0.83;;;;;;;;;;5030274;28;20013;-68
2023/11/09 03:53:27;;;;;;;1.35;0.65;;;;;;;;;;5024830;28;20263;-69
2023/11/09 03:55:52;;;;;;;1.47;0.70;;;;;;;;;;5025915;28;20466;-69
2023/11/09 03:58:17;;;;;;;1.50;0.60;;;;;;;;;;5029797;28;20314;-69
2023/11/09 04:00:43;;;;;;;1.13;0.52;;;;;;;;;;5026432;28;20715;-69
2023/11/09 04:03:08;;;;;;;3.53;0.80;;;;;;;;;;5026730;28;20374;-69
2023/11/09 04:05:33;;;;;;;0.87;0.67;;;;;;;;;;5028798;28;20268;-69
2023/11/09 04:07:59;;;;;;;2.58;1.17;;;;;;;;;;5029175;28;20272;-69
2023/11/09 04:10:24;;;;;;;1.27;0.50;;;;;;;;;;5029206;28;20013;-69
2023/11/09 04:12:49;;;;;;;5.55;0.88;;;;;;;;;;5031838;28;20378;-69
2023/11/09 04:15:15;;;;;;;0.80;0.67;;;;;;;;;;5030737;28;20390;-69
2023/11/09 04:17:40;;;;;;;2.40;0.85;;;;;;;;;;5015126;28;20271;-69
2023/11/09 04:20:08;;;;;;;1.52;0.80;;;;;;;;;;5033070;28;20025;-69
2023/11/09 04:22:34;;;;;;;1.42;0.50;;;;;;;;;;5034412;28;20032;-69
2023/11/09 04:24:59;;;;;;;1.35;0.60;;;;;;;;;;5028600;28;20017;-69
2023/11/09 04:27:24;;;;;;;1.87;0.47;;;;;;;;;;5030155;28;20500;-69
2023/11/09 04:29:49;;;;;;;0.83;0.50;;;;;;;;;;5029998;28;20264;-69
2023/11/09 04:32:18;;;;;;;1.50;0.70;;;;;;;;;;5029424;28;20256;-69
2023/11/09 04:34:45;;;;;;;1.05;0.50;;;;;;;;;;5028535;28;20474;-69
2023/11/09 04:37:12;;;;;;;1.25;0.60;;;;;;;;;;5028962;28;20021;-69
2023/11/09 04:39:41;;;;;;;0.95;0.50;;;;;;;;;;5028154;28;20056;-69
2023/11/09 04:42:08;;;;;;;3.97;0.43;;;;;;;;;;5028451;28;20393;-69
2023/11/09 04:44:36;;;;;;;0.10;0.10;;;;;;;;;;5028537;28;20454;-69
2023/11/09 04:47:08;;;;;;;1.02;0.30;;;;;;;;;;5028721;28;20021;-69
2023/11/09 04:49:36;;;;;;;1.48;0.50;;;;;;;;;;5028009;28;20022;-68
2023/11/09 04:52:04;;;;;;;0.45;0.45;;;;;;;;;;5028726;28;20024;-68
2023/11/09 04:54:34;;;;;;;0.80;0.40;;;;;;;;;;5028254;28;20024;-69
2023/11/09 04:58:44;;;;;;;1.63;0.52;;;;;;;;;;5033032;28;20025;-68
2023/11/09 05:07:44;;;;;;;3.03;0.88;;;;;;;;;;5027741;28;20044;-69
2023/11/09 05:10:09;;;;;;;1.05;0.47;;;;;;;;;;5027609;28;20020;-69
2023/11/09 05:12:34;;;;;;;0.15;0.15;;;;;;;;;;5032315;28;20028;-69
2023/11/09 05:15:00;;;;;;;0.65;0.30;;;;;;;;;;5030540;28;20029;-70
2023/11/09 05:17:25;;;;;;;0.45;0.30;;;;;;;;;;5030110;28;20025;-69
2023/11/09 05:19:51;;;;;;;1.15;0.65;;;;;;;;;;5028644;28;20024;-70
2023/11/09 05:22:17;;;;;;;0.70;0.40;;;;;;;;;;5027866;28;20029;-70
2023/11/09 05:24:43;;;;;;;1.85;0.70;;;;;;;;;;5027490;28;20063;-69
2023/11/09 05:27:08;;;;;;;1.27;0.30;;;;;;;;;;5030709;28;20469;-69
2023/11/09 05:29:34;;;;;;;0.50;0.50;;;;;;;;;;5027419;28;20450;-69
2023/11/09 05:31:59;;;;;;;3.85;0.70;;;;;;;;;;5027901;28;20093;-70
2023/11/09 05:34:25;;;;;;;1.33;0.70;;;;;;;;;;5026254;28;20032;-69
2023/11/09 05:36:50;;;;;;;0.88;0.60;;;;;;;;;;5026918;28;20021;-69
2023/11/09 05:39:15;;;;;;;1.48;0.77;;;;;;;;;;5027007;28;20493;-69
2023/11/09 05:41:41;;;;;;;4.47;0.80;;;;;;;;;;5030854;28;20040;-69
2023/11/09 05:44:09;;;;;;;0.90;0.60;;;;;;;;;;5027787;28;20068;-68
2023/11/09 05:46:36;;;;;;;2.58;0.43;;;;;;;;;;5023891;28;20489;-68
2023/11/09 05:49:01;;;;;;;0.80;0.52;;;;;;;;;;5026831;28;20561;-68
2023/11/09 05:51:28;;;;;;;4.82;0.90;;;;;;;;;;5026067;28;20029;-68
2023/11/09 05:53:57;;;;;;;1.60;0.93;;;;;;;;;;5028979;28;20103;-68
2023/11/09 05:56:28;;;;;;;1.58;1.05;;;;;;;;;;5032689;28;20078;-70
2023/11/09 05:58:53;;;;;;;1.02;0.60;;;;;;;;;;5033470;28;20026;-69
2023/11/09 06:01:18;;;;;;;0.93;0.52;;;;;;;;;;5026953;28;20055;-69
2023/11/09 06:03:43;;;;;;;0.80;0.30;;;;;;;;;;5025161;28;20037;-68
2023/11/09 06:06:09;;;;;;;0.77;0.65;;;;;;;;;;5026405;28;20052;-68
2023/11/09 06:08:37;;;;;;;2.50;0.50;;;;;;;;;;5026356;28;20018;-69
2023/11/09 06:11:03;;;;;;;0.60;0.30;;;;;;;;;;5030937;28;20010;-70
2023/11/09 06:13:28;;;;;;;1.83;0.90;;;;;;;;;;5030009;28;20529;-69
2023/11/09 06:15:54;;;;;;;3.67;1.00;;;;;;;;;;5029174;28;20071;-68
2023/11/09 06:18:19;;;;;;;0.65;0.47;;;;;;;;;;5029872;28;20022;-69
2023/11/09 06:20:47;;;;;;;0.52;0.45;;;;;;;;;;5029694;28;20029;-68
2023/11/09 06:23:13;;;;;;;1.23;0.77;;;;;;;;;;5029844;28;20021;-69
2023/11/09 06:25:39;;;;;;;4.47;1.00;;;;;;;;;;5030412;28;20029;-69
2023/11/09 06:28:04;;;;;;;0.35;0.35;;;;;;;;;;5029366;28;20079;-69
2023/11/09 06:30:29;;;;;;;1.40;0.38;;;;;;;;;;5028244;28;20021;-69
2023/11/09 06:32:55;;;;;;;0.90;0.30;;;;;;;;;;5028870;28;20071;-69
2023/11/09 06:35:20;;;;;;;2.00;1.02;;;;;;;;;;5028986;28;20010;-68
2023/11/09 06:37:45;;;;;;;1.33;0.40;;;;;;;;;;5030614;28;20025;-68
2023/11/09 06:40:12;;;;;;;5.25;1.08;;;;;;;;;;5029206;28;20021;-70
2023/11/09 06:42:38;;;;;;;5.22;1.02;;;;;;;;;;5027890;28;20021;-69
2023/11/09 06:45:04;;;;;;;1.30;1.02;;;;;;;;;;5028926;28;20025;-69
2023/11/09 06:47:29;;;;;;;1.67;0.80;;;;;;;;;;5028456;28;20021;-68
2023/11/09 06:49:54;;;;;;;1.05;0.60;;;;;;;;;;5027119;28;20025;-68
2023/11/09 06:52:20;;;;;;;3.20;0.75;;;;;;;;;;5023195;28;20025;-68
2023/11/09 06:54:45;;;;;;;1.52;0.73;;;;;;;;;;5024799;28;20021;-69
2023/11/09 06:57:11;;;;;;;2.08;0.80;;;;;;;;;;5027117;28;20132;-68
2023/11/09 06:59:36;;;;;;;1.45;0.68;;;;;;;;;;5026584;28;20029;-68
2023/11/09 07:02:01;;;;;;;1.23;0.68;;;;;;;;;;5028006;28;20033;-70
2023/11/09 07:04:28;;;;;;;0.47;0.30;;;;;;;;;;5025732;28;20120;-69
2023/11/09 07:06:53;;;;;;;0.52;0.30;;;;;;;;;;5028921;28;20025;-69
2023/11/09 07:09:19;;;;;;;1.40;0.88;;;;;;;;;;5030660;28;20025;-68
2023/11/09 07:11:44;;;;;;;1.38;0.60;;;;;;;;;;5036871;28;20075;-69
2023/11/09 07:14:10;;;;;;;0.30;0.30;;;;;;;;;;5039391;28;20025;-69
2023/11/09 07:16:36;;;;;;;0.65;0.35;;;;;;;;;;5026863;28;20037;-70
2023/11/09 07:19:01;;;;;;;0.50;0.50;;;;;;;;;;5028165;28;20028;-68
2023/11/09 07:21:27;;;;;;;0.82;0.50;;;;;;;;;;5027768;28;20089;-68
2023/11/09 07:23:59;;;;;;;0.93;0.60;;;;;;;;;;5026762;28;20064;-68
2023/11/09 07:26:24;;;;;;;1.48;0.50;;;;;;;;;;5034940;28;20027;-70
2023/11/09 07:28:51;;;;;;;1.42;0.50;;;;;;;;;;5044436;28;20025;-69
2023/11/09 07:31:16;;;;;;;1.45;0.57;;;;;;;;;;5028365;28;20014;-69
2023/11/09 07:33:44;;;;;;;0.77;0.38;;;;;;;;;;5027101;28;20347;-68
2023/11/09 07:36:10;;;;;;;0.20;0.20;;;;;;;;;;5026985;28;20092;-69
2023/11/09 07:38:36;;;;;;;0.73;0.60;;;;;;;;;;5027148;28;20371;-69
2023/11/09 07:41:01;;;;;;;0.20;0.20;;;;;;;;;;5032313;28;20013;-68
2023/11/09 07:43:29;;;;;;;0.70;0.52;;;;;;;;;;5044201;28;20017;-69
2023/11/09 07:45:55;;;;;;;1.60;0.40;;;;;;;;;;5045023;28;20024;-69
2023/11/09 07:48:22;;;;;;;0.88;0.38;;;;;;;;;;5032445;28;20392;-69
2023/11/09 07:50:49;;;;;;;0.60;0.45;;;;;;;;;;5043801;28;20023;-68
2023/11/09 07:53:15;;;;;;;0.38;0.38;;;;;;;;;;5035412;28;20041;-68
2023/11/09 07:55:41;;;;;;;0.82;0.40;;;;;;;;;;5032520;28;20497;-68
2023/11/09 07:58:06;;;;;;;0.60;0.40;;;;;;;;;;5046127;28;20017;-68
2023/11/09 08:00:32;;;;;;;0.10;0.10;;;;;;;;;;5029717;28;20672;-68
2023/11/09 08:03:00;;;;;;;1.00;0.40;;;;;;;;;;5028027;28;20025;-69
2023/11/09 08:05:25;;;;;;;0.60;0.30;;;;;;;;;;5035004;28;20047;-70
2023/11/09 08:07:54;;;;;;;1.63;0.70;;;;;;;;;;5040427;28;20482;-69
2023/11/09 08:10:19;;;;;;;3.47;1.13;;;;;;;;;;5028019;28;20072;-68
2023/11/09 08:12:45;;;;;;;0.85;0.50;;;;;;;;;;5027816;28;20017;-70
2023/11/09 08:15:10;;;;;;;1.52;0.55;;;;;;;;;;5027830;28;20489;-68
2023/11/09 08:17:39;;;;;;;1.67;0.68;;;;;;;;;;5027031;28;20112;-68
2023/11/09 08:20:07;;;;;;;0.43;0.22;;;;;;;;;;5039840;28;20083;-69
2023/11/09 08:22:32;;;;;;;0.57;0.50;;;;;;;;;;5039152;28;20033;-69
2023/11/09 08:24:59;;;;;;;0.20;0.20;;;;;;;;;;5027063;28;20108;-68
2023/11/09 08:27:25;;;;;;;0.70;0.40;;;;;;;;;;5037466;28;20032;-68
2023/11/09 08:29:51;;;;;;;0.47;0.32;;;;;;;;;;5034819;28;20028;-68
2023/11/09 08:32:16;;;;;;;1.17;0.85;;;;;;;;;;5033611;28;20013;-68
2023/11/09 08:34:41;;;;;;;1.17;0.52;;;;;;;;;;5032556;28;20520;-69
2023/11/09 08:37:10;;;;;;;2.50;1.08;;;;;;;;;;5031112;28;20461;-68
2023/11/09 08:39:37;;;;;;;0.30;0.25;;;;;;;;;;5029089;28;20017;-69
2023/11/09 08:42:03;;;;;;;0.20;0.20;;;;;;;;;;5030470;28;20014;-68
2023/11/09 08:44:28;;;;;;;6.70;0.68;;;;;;;;;;5044575;28;20384;-68
2023/11/09 08:46:54;;;;;;;1.05;0.75;;;;;;;;;;5027642;28;20080;-69
2023/11/09 08:49:21;;;;;;;0.93;0.52;;;;;;;;;;5027702;28;20013;-68
2023/11/09 08:51:47;;;;;;;1.27;0.40;;;;;;;;;;5026788;28;20013;-69
2023/11/09 08:54:12;;;;;;;1.48;0.68;;;;;;;;;;5027810;28;20021;-69
2023/11/09 08:56:38;;;;;;;4.53;0.80;;;;;;;;;;5027055;28;20025;-69
2023/11/09 08:59:05;;;;;;;0.50;0.38;;;;;;;;;;5037467;28;20013;-68
2023/11/09 09:01:31;;;;;;;2.50;0.80;;;;;;;;;;5039977;28;20108;-69
2023/11/09 09:03:56;;;;;;;3.63;0.75;;;;;;;;;;5037324;28;20023;-69
2023/11/09 09:06:21;;;;;;;4.38;0.98;;;;;;;;;;5032816;28;20033;-68
2023/11/09 09:08:47;;;;;;;1.73;0.88;;;;;;;;;;5009722;28;20022;-70
2023/11/09 09:11:14;;;;;;;2.20;0.98;;;;;;;;;;5027764;28;20009;-69
2023/11/09 09:13:40;;;;;;;3.25;0.98;;;;;;;;;;5027459;28;20022;-70
2023/11/09 09:16:06;;;;;;;4.38;1.27;;;;;;;;;;5042072;28;20021;-69
2023/11/09 09:18:31;;;;;;;13.93;2.22;;;;;;;;;;5042076;28;20009;-69
2023/11/09 09:20:57;;;;;;;4.82;2.22;;;;;;;;;;5040098;28;20055;-69
2023/11/09 09:23:22;;;;;;;9.27;2.92;;;;;;;;;;5027783;28;20048;-69
2023/11/09 09:25:48;;;;;;;6.07;2.92;;;;;;;;;;5027138;28;20458;-70
2023/11/09 09:28:14;;;;;;;7.57;2.08;;;;;;;;;;5043043;28;20028;-71
2023/11/09 09:30:39;;;;;;;9.65;1.48;;;;;;;;;;5028881;28;20440;-68
2023/11/09 09:33:07;;;;;;;7.47;1.60;;;;;;;;;;5027435;28;20096;-69
2023/11/09 09:35:32;;;;;;;9.10;1.70;;;;;;;;;;5026819;28;20013;-69
2023/11/09 09:37:59;;;;;;;9.10;2.20;;;;;;;;;;5028156;28;20028;-69
2023/11/09 09:40:26;;;;;;;5.03;2.35;;;;;;;;;;5033044;28;20024;-68
2023/11/09 09:42:52;;;;;;;16.77;2.45;;;;;;;;;;5040313;28;20109;-70
2023/11/09 09:45:22;;;;;;;11.60;2.30;;;;;;;;;;5027775;28;20025;-69
2023/11/09 09:47:50;;;;;;;8.45;2.78;;;;;;;;;;5032108;28;20101;-70
2023/11/09 09:50:24;;;;;;;19.60;6.40;;;;;;;;;;5031144;28;20025;-69
2023/11/09 09:52:51;;;;;;;15.30;4.65;;;;;;;;;;5030897;28;20141;-69
2023/11/09 09:55:18;;;;;;;11.93;3.10;;;;;;;;;;5031854;28;20033;-69
2023/11/09 09:57:44;;;;;;;12.48;2.78;;;;;;;;;;5031824;28;20104;-69
2023/11/09 10:00:13;;;;;;;9.85;2.90;;;;;;;;;;5036141;28;20105;-70
2023/11/09 10:02:42;;;;;;;12.53;1.90;;;;;;;;;;5028873;28;20029;-69
2023/11/09 10:05:12;;;;;;;10.13;2.00;;;;;;;;;;5030809;28;20306;-68
2023/11/09 10:07:56;;;;;;;21.92;2.53;;;;;;;;;;5031348;28;20021;-68
2023/11/09 10:10:21;;;;;;;17.52;2.83;;;;;;;;;;5031874;28;20025;-69
2023/11/09 10:12:46;;;;;;;3.85;1.20;;;;;;;;;;5031556;28;20083;-69
2023/11/09 10:15:15;;;;;;;7.70;2.20;;;;;;;;;;5031405;28;20026;-69
2023/11/09 10:17:40;;;;;;;18.08;1.67;;;;;;;;;;5040264;28;20867;-68
2023/11/09 10:20:07;;;;;;;10.82;2.55;;;;;;;;;;5030945;28;20092;-69
2023/11/09 10:22:36;;;;;;;16.90;2.45;;;;;;;;;;5031014;28;20040;-69
2023/11/09 10:25:02;;;;;;;10.68;1.70;;;;;;;;;;5031385;28;20021;-69
2023/11/09 10:27:30;;;;;;;10.80;2.13;;;;;;;;;;5031262;28;20033;-69
2023/11/09 10:29:55;;;;;;;8.90;1.80;;;;;;;;;;5030750;28;20497;-68
2023/11/09 10:32:21;;;;;;;10.50;2.43;;;;;;;;;;5035998;28;20025;-69
2023/11/09 10:34:46;;;;;;;11.10;2.10;;;;;;;;;;5031083;28;20292;-69
2023/11/09 10:37:13;;;;;;;18.87;2.17;;;;;;;;;;5030590;28;20457;-68
2023/11/09 10:39:42;;;;;;;5.25;1.13;;;;;;;;;;5030952;28;20314;-69
2023/11/09 10:42:08;;;;;;;6.67;2.10;;;;;;;;;;5034272;28;20029;-68
2023/11/09 10:44:33;;;;;;;10.20;1.80;;;;;;;;;;5030340;28;20025;-69
2023/11/09 10:46:59;;;;;;;18.05;2.85;;;;;;;;;;5030519;28;20026;-69
2023/11/09 10:49:26;;;;;;;14.77;2.00;;;;;;;;;;5030746;28;20389;-69
2023/11/09 10:51:55;;;;;;;12.13;2.30;;;;;;;;;;5032950;28;20025;-68
2023/11/09 10:54:24;;;;;;;11.43;2.60;;;;;;;;;;5034262;28;20485;-69
2023/11/09 10:56:49;;;;;;;16.57;2.60;;;;;;;;;;5029232;28;20474;-69
2023/11/09 10:59:15;;;;;;;9.90;1.70;;;;;;;;;;5029912;28;20260;-69
2023/11/09 11:01:40;;;;;;;5.68;1.23;;;;;;;;;;5030435;28;20020;-68
2023/11/09 11:04:08;;;;;;;8.10;2.08;;;;;;;;;;5030774;28;20025;-69
2023/11/09 11:06:41;;;;;;;10.10;1.80;;;;;;;;;;5030060;28;20037;-69
2023/11/09 11:09:18;;;;;;;10.48;2.05;;;;;;;;;;5030440;28;20017;-68
2023/11/09 11:11:46;;;;;;;9.23;1.08;;;;;;;;;;5027575;28;20456;-69
2023/11/09 11:14:14;;;;;;;3.05;1.23;;;;;;;;;;5029986;28;20093;-68
2023/11/09 11:16:51;;;;;;;13.93;2.40;;;;;;;;;;5030093;28;20028;-69
2023/11/09 11:19:23;;;;;;;15.85;1.85;;;;;;;;;;5030541;28;20453;-69
2023/11/09 11:21:57;;;;;;;12.13;1.67;;;;;;;;;;5030450;28;20084;-68
2023/11/09 11:24:41;;;;;;;5.75;1.42;;;;;;;;;;5030366;28;20020;-68
2023/11/09 11:27:11;;;;;;;13.80;2.08;;;;;;;;;;5027970;28;20485;-68
2023/11/09 11:29:37;;;;;;;10.38;2.30;;;;;;;;;;5030433;28;20021;-68
2023/11/09 11:32:03;;;;;;;10.20;1.73;;;;;;;;;;5031196;28;20478;-68
2023/11/09 11:34:44;;;;;;;18.20;2.78;;;;;;;;;;5030486;28;20037;-68
2023/11/09 11:37:11;;;;;;;3.75;1.02;;;;;;;;;;5031456;28;20032;-69
2023/11/09 11:39:37;;;;;;;6.68;1.90;;;;;;;;;;5034279;28;20110;-69
2023/11/09 11:42:16;;;;;;;2.30;0.85;;;;;;;;;;5030481;28;20482;-69
2023/11/09 11:44:46;;;;;;;11.15;1.65;;;;;;;;;;5029772;28;20116;-68
2023/11/09 11:47:14;;;;;;;16.13;2.42;;;;;;;;;;5029972;28;20037;-69
2023/11/09 11:49:40;;;;;;;14.70;1.10;;;;;;;;;;5029733;28;20023;-68
2023/11/09 11:52:07;;;;;;;12.57;2.33;;;;;;;;;;5033555;28;20024;-68
2023/11/09 11:54:32;;;;;;;19.15;2.45;;;;;;;;;;5037379;28;20024;-69
2023/11/09 11:56:57;;;;;;;7.50;1.60;;;;;;;;;;5025952;28;20017;-68
2023/11/09 11:59:23;;;;;;;14.33;2.23;;;;;;;;;;5029678;28;20111;-69
2023/11/09 12:01:50;;;;;;;10.23;2.13;;;;;;;;;;5029477;28;20308;-69
2023/11/09 12:04:16;;;;;;;4.32;1.20;;;;;;;;;;5029845;28;20248;-69
2023/11/09 12:06:43;;;;;;;11.43;1.67;;;;;;;;;;5029051;28;20018;-68
2023/11/09 12:09:09;;;;;;;15.93;3.20;;;;;;;;;;5029260;28;20100;-68
2023/11/09 12:11:40;;;;;;;9.20;2.42;;;;;;;;;;5029575;28;20029;-68
2023/11/09 12:14:08;;;;;;;10.88;2.03;;;;;;;;;;5018423;28;20026;-68
2023/11/09 12:16:33;;;;;;;9.93;1.83;;;;;;;;;;5029032;28;20486;-68
2023/11/09 12:19:01;;;;;;;18.95;1.88;;;;;;;;;;5021411;28;20025;-68
2023/11/09 12:21:30;;;;;;;9.20;0.90;;;;;;;;;;5025068;28;20370;-69
2023/11/09 12:23:56;;;;;;;6.95;1.75;;;;;;;;;;5018174;28;20021;-68
2023/11/09 12:26:23;;;;;;;9.57;2.42;;;;;;;;;;5027178;28;20041;-68
2023/11/09 12:28:49;;;;;;;16.35;2.90;;;;;;;;;;5018636;28;20096;-68
2023/11/09 12:31:15;;;;;;;15.55;2.38;;;;;;;;;;5026577;28;20101;-68
2023/11/09 12:33:40;;;;;;;12.10;2.05;;;;;;;;;;5028657;28;20009;-68
2023/11/09 12:36:06;;;;;;;18.38;2.20;;;;;;;;;;5017187;28;20021;-69
2023/11/09 12:38:35;;;;;;;16.90;3.30;;;;;;;;;;5016807;28;20017;-69
2023/11/09 12:41:02;;;;;;;16.25;2.25;;;;;;;;;;5021541;28;20015;-69
2023/11/09 12:43:38;;;;;;;11.75;1.95;;;;;;;;;;5019814;28;20032;-68
2023/11/09 12:46:08;;;;;;;19.15;2.22;;;;;;;;;;5029283;28;20045;-69
2023/11/09 12:48:49;;;;;;;19.85;2.22;;;;;;;;;;5021234;28;20033;-68
2023/11/09 12:51:21;;;;;;;5.85;1.60;;;;;;;;;;5017536;28;20010;-69
2023/11/09 12:53:47;;;;;;;12.25;2.47;;;;;;;;;;5023005;28;20068;-68
2023/11/09 12:56:12;;;;;;;10.80;2.75;;;;;;;;;;5016660;28;20417;-69
2023/11/09 12:58:40;;;;;;;4.70;0.95;;;;;;;;;;5021812;28;20021;-69
2023/11/09 13:01:05;;;;;;;3.83;1.60;;;;;;;;;;5024853;28;20063;-69
2023/11/09 13:03:31;;;;;;;7.45;1.55;;;;;;;;;;5019493;28;20018;-70
2023/11/09 13:05:56;;;;;;;3.55;1.50;;;;;;;;;;5016224;28;20037;-69
2023/11/09 13:08:22;;;;;;;16.88;2.28;;;;;;;;;;5017709;28;20105;-68
2023/11/09 13:10:57;;;;;;;3.50;1.13;;;;;;;;;;5017741;28;20029;-69
2023/11/09 13:13:24;;;;;;;10.68;1.60;;;;;;;;;;5019235;28;20268;-68
2023/11/09 13:15:50;;;;;;;3.22;1.02;;;;;;;;;;5031767;28;20032;-69
2023/11/09 13:18:23;;;;;;;9.40;2.30;;;;;;;;;;5019038;28;20018;-69
2023/11/09 13:20:53;;;;;;;5.15;1.15;;;;;;;;;;5023575;28;20118;-69
2023/11/09 13:23:26;;;;;;;7.95;1.70;;;;;;;;;;5021359;28;20021;-69
2023/11/09 13:25:57;;;;;;;8.48;1.30;;;;;;;;;;5021412;28;20072;-68
2023/11/09 13:28:23;;;;;;;10.15;2.30;;;;;;;;;;5025466;28;20071;-68
2023/11/09 13:30:52;;;;;;;11.95;3.30;;;;;;;;;;5034084;28;20070;-68
2023/11/09 13:33:29;;;;;;;13.80;2.25;;;;;;;;;;5020309;28;20067;-68
2023/11/09 13:35:59;;;;;;;7.82;2.40;;;;;;;;;;5022333;28;20092;-69
2023/11/09 13:38:30;;;;;;;;;;;;;;;;;;5022990;28;20076;-69
2023/11/09 13:41:16;;;;;;;10.82;2.65;;;;;;;;;;5022580;28;20025;-69
2023/11/09 13:44:06;;;;;;;7.88;0.75;;;;;;;;;;5026881;28;20075;-68
2023/11/09 13:46:39;;;;;;;7.15;1.80;;;;;;;;;;5013537;28;20394;-69
2023/11/09 13:49:18;;;;;;;6.57;1.73;;;;;;;;;;5018813;28;20060;-68
2023/11/09 13:52:02;;;;;;;11.32;2.40;;;;;;;;;;5021097;28;20009;-69
2023/11/09 13:54:36;;;;;;;12.25;2.55;;;;;;;;;;5024642;28;20024;-68
2023/11/09 13:59:42;;;;;;;5.82;1.52;;;;;;;;;;5031610;28;20432;-69
2023/11/09 14:02:17;;;;;;;5.82;2.25;;;;;;;;;;5021225;28;20018;-69
2023/11/09 14:04:48;;;;;;;9.75;2.38;;;;;;;;;;5018630;28;20022;-69
2023/11/09 14:07:15;;;;;;;10.23;2.33;;;;;;;;;;5023771;28;20021;-68
2023/11/09 14:09:42;;;;;;;14.38;3.58;;;;;;;;;;5015201;28;20486;-68
2023/11/09 14:12:12;;;;;;;12.07;2.70;;;;;;;;;;5026837;28;20022;-68
2023/11/09 14:14:45;;;;;;;14.15;2.10;;;;;;;;;;5031516;28;20104;-68
2023/11/09 14:17:17;;;;;;;18.27;1.63;;;;;;;;;;5025226;28;20021;-68
2023/11/09 14:19:54;;;;;;;17.48;2.50;;;;;;;;;;5018066;28;20013;-68
2023/11/09 14:22:20;;;;;;;8.93;2.38;;;;;;;;;;5018463;28;20021;-68
2023/11/09 14:24:45;;;;;;;9.27;1.67;;;;;;;;;;5020610;28;20026;-69
2023/11/09 14:27:11;;;;;;;9.93;1.92;;;;;;;;;;5026797;28;20029;-68
2023/11/09 14:29:36;;;;;;;3.45;0.73;;;;;;;;;;5031293;28;20079;-69
2023/11/09 14:32:01;;;;;;;12.60;1.77;;;;;;;;;;5020607;28;20013;-69
2023/11/09 14:34:27;;;;;;;10.10;2.40;;;;;;;;;;5025985;28;20330;-68
2023/11/09 14:36:58;;;;;;;15.43;2.10;;;;;;;;;;5018561;28;20616;-68
2023/11/09 14:39:36;;;;;;;14.05;2.55;;;;;;;;;;5023994;28;20426;-69
2023/11/09 14:42:05;;;;;;;16.88;2.22;;;;;;;;;;5028325;28;20017;-68
2023/11/09 14:44:53;;;;;;;13.85;2.20;;;;;;;;;;5025699;28;20041;-69
2023/11/09 14:47:24;;;;;;;14.70;2.90;;;;;;;;;;5008053;28;20025;-68
2023/11/09 14:49:52;;;;;;;13.15;1.70;;;;;;;;;;5019141;28;20441;-69